createdAt,value
2022-12-25T00:01:14.025Z,6.20
2022-12-25T00:03:40.924Z,6.20
2022-12-25T00:06:08.106Z,6.20
2022-12-25T00:08:36.371Z,6.10
2022-12-25T00:11:06.594Z,6.10
2022-12-25T00:13:33.500Z,6.10
2022-12-25T00:16:00.351Z,6.20
2022-12-25T00:18:27.144Z,6.20
2022-12-25T00:21:02.311Z,6.20
2022-12-25T00:23:30.095Z,6.20
2022-12-25T00:25:56.947Z,6.30
2022-12-25T00:28:24.363Z,6.30
2022-12-25T00:30:51.725Z,6.30
2022-12-25T00:33:19.040Z,6.30
2022-12-25T00:35:56.647Z,6.40
2022-12-25T00:38:23.438Z,6.40
2022-12-25T00:40:50.244Z,6.40
2022-12-25T00:43:17.167Z,6.50
2022-12-25T00:45:43.967Z,6.50
2022-12-25T00:48:10.795Z,6.50
2022-12-25T00:50:40.351Z,6.50
2022-12-25T00:53:07.102Z,6.40
2022-12-25T00:55:33.845Z,6.50
2022-12-25T00:58:00.630Z,6.60
2022-12-25T01:00:27.389Z,6.60
2022-12-25T01:02:54.270Z,6.60
2022-12-25T01:05:21.055Z,6.60
2022-12-25T01:07:47.791Z,6.60
2022-12-25T01:10:23.737Z,6.60
2022-12-25T01:12:51.708Z,6.60
2022-12-25T01:15:19.272Z,6.50
2022-12-25T01:17:46.153Z,6.50
2022-12-25T01:20:14.696Z,6.50
2022-12-25T01:22:41.618Z,6.40
2022-12-25T01:25:09.169Z,6.30
2022-12-25T01:27:36.357Z,6.30
2022-12-25T01:30:03.359Z,6.30
2022-12-25T01:32:31.555Z,6.20
2022-12-25T01:34:58.357Z,6.30
2022-12-25T01:37:25.455Z,6.30
2022-12-25T01:39:52.308Z,6.30
2022-12-25T01:42:23.689Z,6.20
2022-12-25T01:44:50.594Z,6.10
2022-12-25T01:47:18.319Z,6.20
2022-12-25T01:49:49.697Z,6.30
2022-12-25T01:52:24.122Z,6.30
2022-12-25T01:55:01.800Z,6.30
2022-12-25T01:57:32.284Z,6.20
2022-12-25T02:00:00.090Z,6.20
2022-12-25T02:02:28.375Z,6.30
2022-12-25T02:05:04.653Z,6.30
2022-12-25T02:07:34.593Z,6.30
2022-12-25T02:10:01.425Z,6.40
2022-12-25T02:12:32.537Z,6.40
2022-12-25T02:15:45.248Z,6.50
2022-12-25T02:18:33.602Z,6.50
2022-12-25T02:21:33.955Z,6.60
2022-12-25T02:24:23.007Z,6.60
2022-12-25T02:27:15.882Z,6.50
2022-12-25T02:29:45.357Z,6.50
2022-12-25T02:32:31.012Z,6.40
2022-12-25T02:35:27.809Z,6.40
2022-12-25T02:38:03.596Z,6.30
2022-12-25T02:40:49.928Z,6.20
2022-12-25T02:43:49.438Z,6.10
2022-12-25T02:46:39.755Z,5.90
2022-12-25T02:49:37.658Z,5.80
2022-12-25T02:52:28.574Z,5.60
2022-12-25T02:55:20.443Z,5.50
2022-12-25T02:58:10.115Z,5.50
2022-12-25T03:01:06.904Z,5.50
2022-12-25T03:03:57.133Z,5.40
2022-12-25T03:06:44.732Z,5.30
2022-12-25T03:09:44.413Z,5.30
2022-12-25T03:12:29.588Z,5.30
2022-12-25T03:15:15.696Z,5.30
2022-12-25T03:17:42.754Z,5.30
2022-12-25T03:20:28.848Z,5.30
2022-12-25T03:23:15.356Z,5.20
2022-12-25T03:26:00.938Z,5.10
2022-12-25T03:28:27.675Z,5.00
2022-12-25T03:31:17.093Z,5.00
2022-12-25T03:34:06.994Z,4.90
2022-12-25T03:36:55.202Z,5.00
2022-12-25T03:40:24.005Z,5.00
2022-12-25T03:43:37.498Z,4.90
2022-12-25T03:46:27.141Z,4.90
2022-12-25T03:49:18.867Z,4.90
2022-12-25T03:52:05.996Z,5.00
2022-12-25T03:54:53.861Z,4.90
2022-12-25T03:57:38.989Z,4.70
2022-12-25T04:00:25.244Z,4.60
2022-12-25T04:03:11.367Z,4.50
2022-12-25T04:05:56.571Z,4.40
2022-12-25T04:08:42.079Z,4.40
2022-12-25T04:11:27.271Z,4.50
2022-12-25T04:14:12.865Z,4.40
2022-12-25T04:16:58.046Z,4.40
2022-12-25T04:19:44.476Z,4.40
2022-12-25T04:22:29.855Z,4.40
2022-12-25T04:25:15.151Z,4.30
2022-12-25T04:28:00.552Z,4.20
2022-12-25T04:30:45.772Z,4.10
2022-12-25T04:33:31.548Z,4.10
2022-12-25T04:36:11.666Z,4.00
2022-12-25T04:38:40.690Z,3.90
2022-12-25T04:41:11.982Z,3.70
2022-12-25T04:43:38.747Z,3.50
2022-12-25T04:46:06.239Z,3.40
2022-12-25T04:48:35.309Z,3.50
2022-12-25T04:51:17.873Z,3.50
2022-12-25T04:53:45.230Z,3.60
2022-12-25T04:56:12.499Z,3.60
2022-12-25T04:58:39.337Z,3.60
2022-12-25T05:01:06.218Z,3.30
2022-12-25T05:03:33.578Z,3.20
2022-12-25T05:06:01.342Z,3.20
2022-12-25T05:08:30.114Z,3.00
2022-12-25T05:10:56.896Z,2.90
2022-12-25T05:13:23.653Z,2.90
2022-12-25T05:15:51.357Z,2.90
2022-12-25T05:18:18.196Z,2.80
2022-12-25T05:20:54.795Z,2.80
2022-12-25T05:23:22.110Z,2.80
2022-12-25T05:25:49.060Z,2.80
2022-12-25T05:28:15.819Z,2.80
2022-12-25T05:30:42.604Z,2.60
2022-12-25T05:33:09.421Z,2.60
2022-12-25T05:35:38.159Z,2.70
2022-12-25T05:38:06.546Z,2.60
2022-12-25T05:40:34.311Z,2.60
2022-12-25T05:43:01.061Z,2.70
2022-12-25T05:45:27.798Z,2.60
2022-12-25T05:47:54.531Z,2.60
2022-12-25T05:50:21.348Z,2.70
2022-12-25T05:52:48.102Z,2.70
2022-12-25T05:55:14.979Z,2.60
2022-12-25T05:57:41.713Z,2.60
2022-12-25T06:00:09.033Z,2.70
2022-12-25T06:02:37.211Z,2.70
2022-12-25T06:05:04.943Z,2.70
2022-12-25T06:07:31.888Z,2.70
2022-12-25T06:09:58.745Z,2.80
2022-12-25T06:12:25.527Z,2.80
2022-12-25T06:14:52.272Z,2.80
2022-12-25T06:17:18.994Z,2.90
2022-12-25T06:19:45.764Z,2.90
2022-12-25T06:22:12.496Z,2.90
2022-12-25T06:24:39.477Z,2.90
2022-12-25T06:27:06.218Z,2.90
2022-12-25T06:29:32.959Z,2.90
2022-12-25T06:31:59.781Z,2.90
2022-12-25T06:34:27.057Z,2.90
2022-12-25T06:36:53.800Z,2.90
2022-12-25T06:39:25.401Z,2.90
2022-12-25T06:41:52.182Z,2.90
2022-12-25T06:44:18.903Z,3.00
2022-12-25T06:46:45.601Z,3.00
2022-12-25T06:49:12.319Z,3.00
2022-12-25T06:51:39.110Z,3.00
2022-12-25T06:54:06.397Z,3.10
2022-12-25T06:56:34.031Z,3.30
2022-12-25T06:59:06.479Z,3.30
2022-12-25T07:01:55.859Z,3.20
2022-12-25T07:04:32.083Z,3.30
2022-12-25T07:07:04.455Z,3.20
2022-12-25T07:09:35.587Z,3.30
2022-12-25T07:12:07.768Z,3.30
2022-12-25T07:14:34.652Z,3.40
2022-12-25T07:17:01.427Z,3.30
2022-12-25T07:19:28.260Z,3.30
2022-12-25T07:21:54.972Z,3.40
2022-12-25T07:24:22.982Z,3.50
2022-12-25T07:26:50.836Z,3.60
2022-12-25T07:29:19.506Z,3.70
2022-12-25T07:31:46.855Z,3.70
2022-12-25T07:34:13.575Z,3.60
2022-12-25T07:36:40.314Z,3.70
2022-12-25T07:39:07.007Z,3.80
2022-12-25T07:41:33.698Z,3.80
2022-12-25T07:44:00.476Z,3.90
2022-12-25T07:46:28.263Z,3.90
2022-12-25T07:48:55.034Z,4.00
2022-12-25T07:51:21.900Z,4.10
2022-12-25T07:53:48.622Z,4.10
2022-12-25T07:56:17.779Z,4.10
2022-12-25T07:58:45.365Z,4.10
2022-12-25T08:01:17.616Z,4.20
2022-12-25T08:03:52.371Z,4.30
2022-12-25T08:06:20.292Z,4.30
2022-12-25T08:08:47.091Z,4.30
2022-12-25T08:11:14.026Z,4.40
2022-12-25T08:13:41.018Z,4.40
2022-12-25T08:16:09.926Z,4.40
2022-12-25T08:18:38.354Z,4.40
2022-12-25T08:21:15.178Z,4.50
2022-12-25T08:23:43.925Z,4.60
2022-12-25T08:26:14.025Z,4.60
2022-12-25T08:28:41.139Z,4.70
2022-12-25T08:31:20.583Z,4.70
2022-12-25T08:33:48.903Z,4.80
2022-12-25T08:36:17.194Z,4.90
2022-12-25T08:38:44.318Z,4.90
2022-12-25T08:41:12.199Z,4.90
2022-12-25T08:43:39.422Z,4.90
2022-12-25T08:46:06.940Z,5.00
2022-12-25T08:48:33.736Z,5.00
2022-12-25T08:51:01.021Z,5.10
2022-12-25T08:53:27.798Z,5.20
2022-12-25T08:56:04.335Z,5.30
2022-12-25T08:58:31.355Z,5.40
2022-12-25T09:00:58.591Z,5.60
2022-12-25T09:03:25.807Z,5.80
2022-12-25T09:05:54.138Z,5.90
2022-12-25T09:08:21.843Z,6.10
2022-12-25T09:10:49.305Z,6.30
2022-12-25T09:13:16.135Z,6.40
2022-12-25T09:15:42.968Z,6.50
2022-12-25T09:18:09.850Z,6.60
2022-12-25T09:20:36.604Z,6.60
2022-12-25T09:23:06.071Z,6.70
2022-12-25T09:25:35.301Z,6.70
2022-12-25T09:28:02.039Z,6.70
2022-12-25T09:30:29.155Z,6.70
2022-12-25T09:32:56.187Z,6.80
2022-12-25T09:35:22.909Z,6.80
2022-12-25T09:37:49.655Z,7.00
2022-12-25T09:40:21.112Z,7.00
2022-12-25T09:42:48.911Z,7.10
2022-12-25T09:45:29.951Z,7.30
2022-12-25T09:47:57.324Z,7.40
2022-12-25T09:50:40.459Z,7.50
2022-12-25T09:53:18.915Z,7.60
2022-12-25T09:55:56.687Z,7.80
2022-12-25T09:58:28.009Z,7.90
2022-12-25T10:01:12.469Z,8.10
2022-12-25T10:03:57.823Z,8.30
2022-12-25T10:06:49.481Z,8.50
2022-12-25T10:09:25.524Z,8.70
2022-12-25T10:12:29.408Z,8.90
2022-12-25T10:15:23.316Z,9.20
2022-12-25T10:18:17.944Z,9.40
2022-12-25T10:20:53.080Z,9.80
2022-12-25T10:23:30.620Z,9.90
2022-12-25T10:25:57.361Z,9.80
2022-12-25T10:28:34.847Z,9.80
2022-12-25T10:31:16.034Z,9.90
2022-12-25T10:33:42.792Z,9.90
2022-12-25T10:36:09.731Z,9.90
2022-12-25T10:38:39.475Z,10.00
2022-12-25T10:41:13.618Z,10.00
2022-12-25T10:43:45.300Z,10.10
2022-12-25T10:46:14.899Z,10.10
2022-12-25T10:48:46.524Z,10.20
2022-12-25T10:51:13.636Z,10.20
2022-12-25T10:53:43.595Z,10.20
2022-12-25T10:56:19.565Z,10.30
2022-12-25T10:58:46.417Z,10.30
2022-12-25T11:01:13.754Z,10.50
2022-12-25T11:03:44.789Z,10.90
2022-12-25T11:06:26.559Z,11.30
2022-12-25T11:08:59.894Z,11.70
2022-12-25T11:11:29.490Z,11.90
2022-12-25T11:14:01.620Z,11.90
2022-12-25T11:16:39.956Z,11.90
2022-12-25T11:19:26.978Z,12.00
2022-12-25T11:21:56.657Z,12.10
2022-12-25T11:24:27.968Z,12.20
2022-12-25T11:27:01.060Z,12.30
2022-12-25T11:29:39.994Z,12.60
2022-12-25T11:32:16.320Z,12.80
2022-12-25T11:34:46.810Z,13.20
2022-12-25T11:37:20.176Z,13.70
2022-12-25T11:39:47.251Z,13.90
2022-12-25T11:42:28.679Z,13.90
2022-12-25T11:45:17.130Z,14.20
2022-12-25T11:48:05.120Z,14.50
2022-12-25T11:50:36.456Z,14.60
2022-12-25T11:53:07.265Z,14.30
2022-12-25T11:55:47.117Z,14.30
2022-12-25T11:58:26.763Z,14.30
2022-12-25T12:00:57.209Z,14.10
2022-12-25T12:03:37.377Z,13.60
2022-12-25T12:06:33.287Z,13.60
2022-12-25T12:09:34.473Z,13.80
2022-12-25T12:12:25.354Z,13.70
2022-12-25T12:15:00.579Z,14.00
2022-12-25T12:17:27.343Z,14.60
2022-12-25T12:19:54.139Z,14.80
2022-12-25T12:22:27.212Z,14.60
2022-12-25T12:25:05.168Z,14.50
2022-12-25T12:27:40.530Z,14.30
2022-12-25T12:30:24.424Z,14.10
2022-12-25T12:32:59.175Z,13.70
2022-12-25T12:35:30.085Z,13.50
2022-12-25T12:38:03.832Z,13.30
2022-12-25T12:40:33.653Z,13.40
2022-12-25T12:43:01.303Z,13.60
2022-12-25T12:45:36.036Z,13.80
2022-12-25T12:48:14.762Z,13.60
2022-12-25T12:50:42.351Z,13.30
2022-12-25T12:53:24.388Z,13.20
2022-12-25T12:55:52.662Z,13.40
2022-12-25T12:58:34.379Z,13.90
2022-12-25T13:01:34.275Z,14.30
2022-12-25T13:04:26.329Z,14.10
2022-12-25T13:07:05.251Z,13.30
2022-12-25T13:10:10.642Z,12.90
2022-12-25T13:12:38.162Z,12.60
2022-12-25T13:15:12.743Z,13.10
2022-12-25T13:17:44.531Z,13.50
2022-12-25T13:20:28.772Z,13.60
2022-12-25T13:22:55.612Z,14.30
2022-12-25T13:25:23.891Z,14.90
2022-12-25T13:27:57.611Z,15.40
2022-12-25T13:30:25.635Z,15.80
2022-12-25T13:32:54.630Z,15.70
2022-12-25T13:35:23.309Z,15.60
2022-12-25T13:37:50.915Z,15.60
2022-12-25T13:40:24.566Z,15.60
2022-12-25T13:42:56.536Z,15.20
2022-12-25T13:45:26.349Z,14.40
2022-12-25T13:47:55.705Z,13.80
2022-12-25T13:50:28.597Z,13.90
2022-12-25T13:52:57.383Z,13.90
2022-12-25T13:55:26.637Z,13.90
2022-12-25T13:58:05.709Z,14.10
2022-12-25T14:00:35.128Z,14.00
2022-12-25T14:03:03.256Z,13.70
2022-12-25T14:05:37.961Z,14.00
2022-12-25T14:08:18.911Z,14.80
2022-12-25T14:10:49.986Z,15.10
2022-12-25T14:13:19.356Z,14.80
2022-12-25T14:15:54.071Z,14.50
2022-12-25T14:18:23.847Z,14.20
2022-12-25T14:21:25.298Z,14.40
2022-12-25T14:23:52.343Z,14.10
2022-12-25T14:26:22.092Z,13.40
2022-12-25T14:28:50.937Z,12.90
2022-12-25T14:31:18.770Z,13.30
2022-12-25T14:33:46.200Z,14.10
2022-12-25T14:36:13.975Z,14.50
2022-12-25T14:38:42.507Z,14.40
2022-12-25T14:41:33.289Z,14.20
2022-12-25T14:44:38.593Z,13.60
2022-12-25T14:47:11.535Z,13.80
2022-12-25T14:49:38.539Z,13.70
2022-12-25T14:52:22.840Z,13.10
2022-12-25T14:55:17.544Z,12.80
2022-12-25T14:57:49.027Z,12.80
2022-12-25T15:00:21.840Z,12.40
2022-12-25T15:02:51.427Z,11.90
2022-12-25T15:05:27.284Z,11.50
2022-12-25T15:08:10.153Z,11.10
2022-12-25T15:13:26.372Z,10.50
2022-12-25T15:16:29.819Z,10.30
2022-12-25T15:18:57.118Z,10.20
2022-12-25T15:21:28.729Z,10.20
2022-12-25T15:23:57.455Z,10.00
2022-12-25T15:26:25.822Z,9.90
2022-12-25T15:28:52.958Z,9.80
2022-12-25T15:31:25.819Z,9.60
2022-12-25T15:33:54.649Z,9.50
2022-12-25T15:36:22.713Z,9.40
2022-12-25T15:38:49.935Z,9.40
2022-12-25T15:41:38.107Z,9.30
2022-12-25T15:44:06.573Z,9.30
2022-12-25T15:46:34.182Z,9.20
2022-12-25T15:49:01.250Z,9.10
2022-12-25T15:51:28.093Z,8.90
2022-12-25T15:53:55.011Z,8.80
2022-12-25T15:56:23.294Z,8.80
2022-12-25T15:58:50.089Z,8.80
2022-12-25T16:01:18.963Z,8.70
2022-12-25T16:03:46.533Z,8.60
2022-12-25T16:06:16.215Z,8.40
2022-12-25T16:08:43.136Z,8.40
2022-12-25T16:11:10.617Z,8.30
2022-12-25T16:13:37.755Z,8.30
2022-12-25T16:16:05.063Z,8.20
2022-12-25T16:18:31.931Z,8.10
2022-12-25T16:20:59.245Z,8.00
2022-12-25T16:23:26.312Z,7.90
2022-12-25T16:25:53.056Z,7.90
2022-12-25T16:28:19.908Z,7.80
2022-12-25T16:30:46.759Z,7.70
2022-12-25T16:33:13.589Z,7.60
2022-12-25T16:35:40.374Z,7.60
2022-12-25T16:38:07.546Z,7.60
2022-12-25T16:40:34.368Z,7.60
2022-12-25T16:43:01.156Z,7.50
2022-12-25T16:45:28.230Z,7.50
2022-12-25T16:47:57.015Z,7.30
2022-12-25T16:50:23.852Z,7.30
2022-12-25T16:52:50.660Z,7.30
2022-12-25T16:55:18.591Z,7.30
2022-12-25T16:57:50.901Z,7.30
2022-12-25T17:00:18.617Z,7.40
2022-12-25T17:02:45.729Z,7.30
2022-12-25T17:05:12.790Z,7.10
2022-12-25T17:07:39.615Z,7.00
2022-12-25T17:10:07.891Z,6.90
2022-12-25T17:12:34.675Z,6.90
2022-12-25T17:15:01.431Z,6.90
2022-12-25T17:17:28.205Z,6.80
2022-12-25T17:19:54.975Z,6.80
2022-12-25T17:22:25.418Z,6.80
2022-12-25T17:24:52.225Z,6.70
2022-12-25T17:27:18.993Z,6.70
2022-12-25T17:29:48.255Z,6.60
2022-12-25T17:32:15.116Z,6.60
2022-12-25T17:34:41.870Z,6.50
2022-12-25T17:37:08.768Z,6.50
2022-12-25T17:39:35.533Z,6.40
2022-12-25T17:42:02.398Z,6.40
2022-12-25T17:44:29.336Z,6.40
2022-12-25T17:46:56.106Z,6.40
2022-12-25T17:49:23.359Z,6.40
2022-12-25T17:51:50.467Z,6.40
2022-12-25T17:54:17.174Z,6.40
2022-12-25T17:56:43.904Z,6.40
2022-12-25T17:59:18.079Z,6.30
2022-12-25T18:01:46.823Z,6.30
2022-12-25T18:04:14.231Z,6.40
2022-12-25T18:06:41.365Z,6.40
2022-12-25T18:09:09.677Z,6.40
2022-12-25T18:11:39.673Z,6.30
2022-12-25T18:14:08.352Z,6.20
2022-12-25T18:16:37.856Z,6.30
2022-12-25T18:19:05.308Z,6.20
2022-12-25T18:21:32.396Z,6.30
2022-12-25T18:23:59.464Z,6.30
2022-12-25T18:26:28.608Z,6.20
2022-12-25T18:28:55.820Z,6.10
2022-12-25T18:31:25.116Z,6.10
2022-12-25T18:33:52.367Z,6.10
2022-12-25T18:36:22.179Z,6.00
2022-12-25T18:38:50.903Z,5.90
2022-12-25T18:41:18.601Z,6.00
2022-12-25T18:43:52.609Z,6.00
2022-12-25T18:46:27.335Z,6.00
2022-12-25T18:48:55.760Z,6.00
2022-12-25T18:51:22.554Z,5.90
2022-12-25T18:53:49.493Z,5.90
2022-12-25T18:56:17.701Z,5.80
2022-12-25T18:58:46.288Z,5.80
2022-12-25T19:01:23.575Z,5.80
2022-12-25T19:03:51.693Z,5.90
2022-12-25T19:06:18.437Z,5.90
2022-12-25T19:08:45.425Z,6.00
2022-12-25T19:11:12.307Z,6.00
2022-12-25T19:13:39.112Z,6.00
2022-12-25T19:16:06.116Z,6.20
2022-12-25T19:18:32.931Z,6.10
2022-12-25T19:21:05.023Z,6.10
2022-12-25T19:23:31.887Z,6.10
2022-12-25T19:25:58.699Z,6.00
2022-12-25T19:28:25.506Z,5.90
2022-12-25T19:30:53.987Z,5.80
2022-12-25T19:33:21.838Z,5.80
2022-12-25T19:35:48.968Z,5.90
2022-12-25T19:38:16.284Z,5.90
2022-12-25T19:41:00.057Z,6.10
2022-12-25T19:43:33.421Z,6.00
2022-12-25T19:46:01.642Z,5.90
2022-12-25T19:48:29.427Z,6.00
2022-12-25T19:50:56.207Z,5.90
2022-12-25T19:53:23.742Z,5.90
2022-12-25T19:55:52.567Z,6.10
2022-12-25T19:58:23.446Z,6.20
2022-12-25T20:01:05.956Z,6.20
2022-12-25T20:03:45.350Z,6.30
2022-12-25T20:06:24.634Z,6.20
2022-12-25T20:08:57.471Z,6.10
2022-12-25T20:11:26.629Z,6.30
2022-12-25T20:13:54.400Z,6.60
2022-12-25T20:16:21.380Z,6.50
2022-12-25T20:18:48.283Z,6.40
2022-12-25T20:21:18.186Z,6.30
2022-12-25T20:23:46.879Z,6.30
2022-12-25T20:26:14.629Z,6.40
2022-12-25T20:28:42.316Z,6.60
2022-12-25T20:31:16.938Z,6.60
2022-12-25T20:33:44.567Z,6.50
2022-12-25T20:36:12.713Z,6.50
2022-12-25T20:38:39.879Z,6.40
2022-12-25T20:41:29.491Z,6.40
2022-12-25T20:43:56.989Z,6.30
2022-12-25T20:46:25.102Z,6.30
2022-12-25T20:48:52.799Z,6.30
2022-12-25T20:51:22.433Z,6.30
2022-12-25T20:53:49.792Z,6.30
2022-12-25T20:56:18.516Z,6.30
2022-12-25T20:58:45.592Z,6.30
2022-12-25T21:01:17.567Z,6.20
2022-12-25T21:03:44.752Z,6.30
2022-12-25T21:06:12.438Z,6.40
2022-12-25T21:08:40.998Z,6.40
2022-12-25T21:11:08.953Z,6.40
2022-12-25T21:13:38.531Z,6.40
2022-12-25T21:16:07.440Z,6.30
2022-12-25T21:18:34.598Z,6.40
2022-12-25T21:21:05.453Z,6.50
2022-12-25T21:23:33.181Z,6.60
2022-12-25T21:26:00.045Z,6.40
2022-12-25T21:28:27.117Z,6.50
2022-12-25T21:30:53.920Z,6.60
2022-12-25T21:33:39.302Z,6.70
2022-12-25T21:36:11.211Z,6.60
2022-12-25T21:38:39.136Z,6.70
2022-12-25T21:41:08.725Z,6.80
2022-12-25T21:43:37.523Z,6.90
2022-12-25T21:46:09.794Z,7.10
2022-12-25T21:48:37.432Z,7.10
2022-12-25T21:51:23.731Z,7.10
2022-12-25T21:53:50.705Z,7.20
2022-12-25T21:56:18.181Z,7.20
2022-12-25T21:58:44.970Z,7.10
2022-12-25T22:01:11.936Z,7.20
2022-12-25T22:03:38.795Z,7.40
2022-12-25T22:06:24.197Z,7.30
2022-12-25T22:08:50.978Z,7.50
2022-12-25T22:11:36.303Z,7.40
2022-12-25T22:14:51.936Z,7.40
2022-12-25T22:17:27.820Z,7.60
2022-12-25T22:19:55.320Z,7.70
2022-12-25T22:22:25.251Z,7.70
2022-12-25T22:24:54.664Z,7.80
2022-12-25T22:27:21.889Z,7.80
2022-12-25T22:29:48.879Z,7.60
2022-12-25T22:32:16.418Z,7.40
2022-12-25T22:34:43.651Z,7.50
2022-12-25T22:37:14.924Z,7.60
2022-12-25T22:39:41.712Z,7.60
2022-12-25T22:42:08.528Z,7.40
2022-12-25T22:44:35.342Z,7.30
2022-12-25T22:47:02.109Z,7.30
2022-12-25T22:49:29.172Z,7.30
2022-12-25T22:51:56.372Z,7.40
2022-12-25T22:54:24.491Z,7.40
2022-12-25T22:56:52.604Z,7.30
2022-12-25T22:59:22.228Z,7.30
2022-12-25T23:01:49.822Z,7.30
2022-12-25T23:04:17.030Z,7.30
2022-12-25T23:06:44.205Z,7.30
2022-12-25T23:09:18.895Z,7.20
2022-12-25T23:11:49.052Z,7.30
2022-12-25T23:14:34.559Z,7.30
2022-12-25T23:17:01.341Z,7.30
2022-12-25T23:19:46.677Z,7.30
2022-12-25T23:22:32.075Z,7.20
2022-12-25T23:25:17.736Z,7.30
2022-12-25T23:27:45.644Z,7.30
2022-12-25T23:30:16.169Z,7.30
2022-12-25T23:32:43.858Z,7.20
2022-12-25T23:35:11.829Z,7.10
2022-12-25T23:37:38.632Z,7.10
2022-12-25T23:40:06.064Z,7.20
2022-12-25T23:42:32.851Z,7.30
2022-12-25T23:44:59.586Z,7.30
2022-12-25T23:47:26.412Z,7.30
2022-12-25T23:49:53.186Z,7.40
2022-12-25T23:52:19.955Z,7.30
2022-12-25T23:54:46.746Z,7.40
2022-12-25T23:57:17.269Z,7.30
2022-12-25T23:59:44.162Z,7.20
